createdAt,value
2018-10-01T00:00:53.631Z,7.96
2018-10-01T00:01:53.603Z,7.99
2018-10-01T00:02:54.843Z,7.96
2018-10-01T00:03:53.568Z,8.01
2018-10-01T00:04:53.548Z,8.01
2018-10-01T00:05:53.573Z,7.96
2018-10-01T00:06:53.806Z,7.94
2018-10-01T00:07:53.593Z,7.99
2018-10-01T00:08:53.465Z,7.96
2018-10-01T00:09:53.446Z,7.99
2018-10-01T00:10:53.429Z,8.01
2018-10-01T00:11:53.406Z,8.01
2018-10-01T00:12:53.392Z,8.09
2018-10-01T00:13:53.719Z,8.02
2018-10-01T00:14:53.346Z,8.06
2018-10-01T00:15:53.331Z,8.02
2018-10-01T00:16:53.310Z,8.12
2018-10-01T00:17:53.287Z,8.02
2018-10-01T00:18:53.329Z,8.09
2018-10-01T00:19:53.300Z,8.02
2018-10-01T00:20:53.528Z,8.12
2018-10-01T00:21:53.224Z,8.13
2018-10-01T00:22:53.196Z,8.13
2018-10-01T00:23:53.184Z,8.14
2018-10-01T00:24:53.165Z,8.19
2018-10-01T00:25:54.636Z,8.19
2018-10-01T00:26:53.114Z,8.14
2018-10-01T00:27:53.405Z,8.14
2018-10-01T00:28:53.377Z,8.13
2018-10-01T00:29:53.262Z,8.16
2018-10-01T00:30:53.204Z,8.13
2018-10-01T00:31:53.115Z,8.13
2018-10-01T00:32:53.008Z,8.13
2018-10-01T00:33:53.176Z,8.09
2018-10-01T00:34:53.265Z,8.02
2018-10-01T00:35:52.938Z,8.09
2018-10-01T00:36:52.914Z,8.14
2018-10-01T00:37:52.895Z,8.12
2018-10-01T00:38:52.923Z,8.14
2018-10-01T00:39:52.908Z,8.20
2018-10-01T00:40:52.909Z,8.14
2018-10-01T00:41:53.125Z,8.21
2018-10-01T00:42:52.799Z,8.19
2018-10-01T00:43:52.777Z,8.19
2018-10-01T00:44:52.757Z,8.23
2018-10-01T00:45:52.751Z,8.20
2018-10-01T00:46:52.723Z,8.31
2018-10-01T00:47:53.070Z,8.28
2018-10-01T00:48:52.679Z,8.41
2018-10-01T00:49:52.715Z,8.53
2018-10-01T00:51:52.627Z,8.65
2018-10-01T00:52:52.806Z,8.74
2018-10-01T00:53:52.882Z,8.78
2018-10-01T00:54:52.561Z,8.88
2018-10-01T00:55:52.595Z,8.88
2018-10-01T00:56:52.529Z,8.93
2018-10-01T00:57:52.511Z,9.04
2018-10-01T00:58:52.482Z,9.01
2018-10-01T00:59:52.817Z,8.99
2018-10-01T01:00:52.452Z,9.01
2018-10-01T01:01:52.678Z,9.16
2018-10-01T01:03:52.394Z,9.14
2018-10-01T01:04:52.369Z,9.22
2018-10-01T01:05:52.650Z,9.23
2018-10-01T01:06:52.432Z,9.24
2018-10-01T01:07:52.308Z,9.47
2018-10-01T01:08:52.297Z,9.51
2018-10-01T01:09:52.274Z,9.60
2018-10-01T01:10:52.256Z,9.62
2018-10-01T01:11:52.579Z,9.78
2018-10-01T01:12:52.285Z,9.93
2018-10-01T01:13:52.200Z,9.94
2018-10-01T01:14:52.174Z,10.08
2018-10-01T01:16:52.189Z,10.21
2018-10-01T01:17:52.481Z,10.35
2018-10-01T01:18:52.100Z,10.38
2018-10-01T01:19:52.081Z,10.46
2018-10-01T01:20:52.065Z,10.45
2018-10-01T01:21:52.091Z,10.54
2018-10-01T01:23:52.003Z,10.61
2018-10-01T01:24:52.305Z,10.68
2018-10-01T01:25:51.969Z,10.73
2018-10-01T01:26:52.802Z,10.78
2018-10-01T01:27:51.925Z,10.82
2018-10-01T01:28:51.909Z,10.80
2018-10-01T01:29:51.889Z,10.75
2018-10-01T01:30:51.874Z,10.80
2018-10-01T01:31:52.207Z,10.86
2018-10-01T01:32:51.891Z,10.79
2018-10-01T01:33:51.810Z,10.78
2018-10-01T01:34:51.802Z,10.72
2018-10-01T01:35:51.785Z,10.80
2018-10-01T01:36:51.755Z,10.82
2018-10-01T01:38:52.919Z,10.79
2018-10-01T01:39:52.015Z,10.76
2018-10-01T01:40:51.690Z,10.73
2018-10-01T01:41:51.666Z,10.87
2018-10-01T01:42:51.667Z,10.76
2018-10-01T01:43:51.640Z,10.80
2018-10-01T01:44:51.654Z,10.82
2018-10-01T01:45:51.642Z,10.82
2018-10-01T01:46:51.872Z,10.79
2018-10-01T01:47:51.563Z,10.76
2018-10-01T01:48:51.538Z,10.78
2018-10-01T01:49:51.511Z,10.80
2018-10-01T01:51:51.522Z,10.83
2018-10-01T01:52:51.455Z,10.79
2018-10-01T01:53:51.736Z,10.70
2018-10-01T01:55:51.417Z,10.82
2018-10-01T01:56:51.387Z,10.76
2018-10-01T01:57:51.442Z,10.78
2018-10-01T01:58:51.345Z,10.82
2018-10-01T01:59:51.336Z,10.75
2018-10-01T02:00:51.605Z,10.78
2018-10-01T02:01:51.327Z,10.68
2018-10-01T02:02:51.375Z,10.72
2018-10-01T02:03:51.558Z,10.67
2018-10-01T02:04:51.233Z,10.65
2018-10-01T02:05:51.209Z,10.76
2018-10-01T02:06:51.199Z,10.78
2018-10-01T02:07:51.476Z,10.79
2018-10-01T02:08:51.153Z,10.72
2018-10-01T02:09:51.191Z,10.76
2018-10-01T02:10:51.122Z,10.80
2018-10-01T02:11:51.096Z,10.75
2018-10-01T02:12:51.080Z,10.78
2018-10-01T02:13:51.359Z,10.79
2018-10-01T02:14:51.051Z,10.85
2018-10-01T02:15:51.105Z,10.75
2018-10-01T02:16:51.080Z,10.78
2018-10-01T02:17:50.990Z,10.76
2018-10-01T02:18:51.175Z,10.78
2018-10-01T02:19:51.267Z,10.76
2018-10-01T02:20:50.942Z,10.78
2018-10-01T02:21:50.910Z,10.78
2018-10-01T02:22:50.900Z,10.75
2018-10-01T02:24:50.854Z,10.83
2018-10-01T02:25:51.145Z,10.93
2018-10-01T02:26:50.879Z,10.86
2018-10-01T02:27:50.815Z,10.87
2018-10-01T02:28:50.796Z,10.83
2018-10-01T02:29:50.764Z,10.85
2018-10-01T02:30:50.743Z,10.87
2018-10-01T02:31:51.331Z,10.86
2018-10-01T02:32:50.712Z,10.82
2018-10-01T02:33:50.694Z,10.75
2018-10-01T02:34:50.673Z,10.85
2018-10-01T02:35:50.763Z,10.73
2018-10-01T02:36:50.636Z,10.82
2018-10-01T02:37:50.970Z,10.72
2018-10-01T02:38:50.608Z,10.64
2018-10-01T02:39:50.580Z,10.61
2018-10-01T02:41:50.542Z,10.62
2018-10-01T02:42:50.531Z,10.55
2018-10-01T02:43:51.161Z,10.48
2018-10-01T02:44:50.485Z,10.46
2018-10-01T02:45:50.469Z,10.35
2018-10-01T02:46:50.448Z,10.36
2018-10-01T02:47:50.552Z,10.31
2018-10-01T02:48:50.411Z,10.36
2018-10-01T02:49:50.459Z,10.35
2018-10-01T02:51:50.663Z,10.36
2018-10-01T02:53:50.326Z,10.27
2018-10-01T02:54:50.321Z,10.27
2018-10-01T02:55:50.503Z,10.24
2018-10-01T02:56:50.277Z,10.18
2018-10-01T02:57:50.257Z,10.28
2018-10-01T02:58:50.544Z,10.20
2018-10-01T03:00:50.506Z,10.34
2018-10-01T03:01:50.175Z,10.36
2018-10-01T03:02:50.154Z,10.35
2018-10-01T03:03:50.137Z,10.36
2018-10-01T03:04:50.333Z,10.36
2018-10-01T03:05:50.403Z,10.36
2018-10-01T03:06:50.439Z,10.46
2018-10-01T03:07:50.068Z,10.48
2018-10-01T03:08:50.052Z,10.48
2018-10-01T03:09:50.059Z,10.52
2018-10-01T03:10:50.062Z,10.49
2018-10-01T03:11:50.037Z,10.58
2018-10-01T03:12:50.271Z,10.65
2018-10-01T03:13:50.024Z,10.58
2018-10-01T03:15:49.918Z,10.67
2018-10-01T03:16:49.923Z,10.79
2018-10-01T03:17:49.931Z,10.75
2018-10-01T03:18:49.861Z,10.79
2018-10-01T03:19:50.147Z,10.75
2018-10-01T03:20:49.875Z,10.82
2018-10-01T03:21:49.818Z,10.86
2018-10-01T03:22:50.147Z,10.76
2018-10-01T03:23:49.766Z,10.80
2018-10-01T03:24:49.748Z,10.78
2018-10-01T03:25:49.734Z,10.78
2018-10-01T03:26:50.027Z,10.80
2018-10-01T03:27:49.747Z,10.87
2018-10-01T03:28:49.726Z,10.93
2018-10-01T03:29:49.939Z,10.94
2018-10-01T03:30:49.714Z,10.87
2018-10-01T03:31:49.629Z,10.95
2018-10-01T03:33:49.741Z,10.98
2018-10-01T03:34:50.046Z,10.93
2018-10-01T03:35:49.557Z,10.85
2018-10-01T03:36:49.537Z,10.85
2018-10-01T03:37:49.589Z,10.86
2018-10-01T03:38:49.532Z,10.91
2018-10-01T03:39:49.476Z,10.90
2018-10-01T03:40:49.766Z,10.90
2018-10-01T03:41:49.437Z,10.87
2018-10-01T03:42:49.417Z,10.93
2018-10-01T03:43:49.425Z,10.86
2018-10-01T03:44:49.435Z,10.91
2018-10-01T03:45:49.370Z,10.83
2018-10-01T03:46:49.655Z,10.90
2018-10-01T03:47:49.325Z,10.85
2018-10-01T03:48:49.302Z,10.86
2018-10-01T03:49:49.283Z,10.78
2018-10-01T03:50:49.262Z,10.82
2018-10-01T03:51:49.612Z,10.75
2018-10-01T03:52:49.579Z,10.78
2018-10-01T03:53:49.206Z,10.83
2018-10-01T03:55:50.372Z,10.75
2018-10-01T03:56:49.223Z,10.76
2018-10-01T03:59:49.101Z,10.68
2018-10-01T04:00:49.083Z,10.72
2018-10-01T04:01:49.106Z,10.62
2018-10-01T04:02:49.058Z,10.61
2018-10-01T04:03:49.084Z,10.60
2018-10-01T04:05:48.996Z,10.57
2018-10-01T04:06:50.237Z,10.52
2018-10-01T04:07:49.008Z,10.54
2018-10-01T04:08:49.109Z,10.48
2018-10-01T04:09:49.123Z,10.49
2018-10-01T04:10:49.476Z,10.54
2018-10-01T04:11:49.047Z,10.46
2018-10-01T04:12:49.086Z,10.41
2018-10-01T04:13:49.167Z,10.42
2018-10-01T04:14:49.192Z,10.35
2018-10-01T04:15:48.977Z,10.31
2018-10-01T04:16:49.083Z,10.31
2018-10-01T04:17:48.762Z,10.35
2018-10-01T04:18:48.744Z,10.31
2018-10-01T04:19:48.775Z,10.31
2018-10-01T04:20:48.716Z,10.28
2018-10-01T04:21:48.796Z,10.27
2018-10-01T04:22:49.979Z,10.31
2018-10-01T04:23:48.998Z,10.31
2018-10-01T04:24:48.649Z,10.18
2018-10-01T04:25:49.255Z,10.30
2018-10-01T04:26:49.144Z,10.30
2018-10-01T04:27:48.884Z,10.17
2018-10-01T04:28:48.551Z,10.21
2018-10-01T04:30:48.818Z,10.28
2018-10-01T04:31:48.496Z,10.31
2018-10-01T04:32:48.475Z,10.34
2018-10-01T04:33:48.518Z,10.28
2018-10-01T04:34:48.444Z,10.16
2018-10-01T04:35:48.429Z,10.23
2018-10-01T04:37:48.909Z,10.21
2018-10-01T04:38:48.368Z,10.17
2018-10-01T04:39:48.341Z,10.31
2018-10-01T04:41:48.384Z,10.26
2018-10-01T04:42:48.281Z,10.18
2018-10-01T04:43:48.316Z,10.28
2018-10-01T04:45:48.231Z,10.20
2018-10-01T04:46:48.229Z,10.20
2018-10-01T04:47:48.234Z,10.28
2018-10-01T04:48:48.168Z,10.26
2018-10-01T04:49:49.354Z,10.21
2018-10-01T04:50:48.125Z,10.26
2018-10-01T04:51:48.412Z,10.24
2018-10-01T04:52:48.295Z,10.27
2018-10-01T04:53:48.129Z,10.24
2018-10-01T04:54:48.302Z,10.17
2018-10-01T04:56:48.104Z,10.18
2018-10-01T04:57:48.001Z,10.27
2018-10-01T04:58:48.667Z,10.20
2018-10-01T05:00:48.044Z,10.18
2018-10-01T05:01:47.925Z,10.20
2018-10-01T05:02:47.964Z,10.24
2018-10-01T05:03:47.893Z,10.28
2018-10-01T05:04:48.217Z,10.18
2018-10-01T05:05:47.843Z,10.27
2018-10-01T05:06:47.876Z,10.16
2018-10-01T05:10:49.295Z,10.21
2018-10-01T05:11:47.795Z,10.21
2018-10-01T05:12:47.709Z,10.14
2018-10-01T05:13:47.687Z,10.14
2018-10-01T05:14:47.716Z,10.20
2018-10-01T05:15:47.649Z,10.18
2018-10-01T05:16:48.091Z,10.18
2018-10-01T05:18:47.669Z,10.18
2018-10-01T05:19:47.576Z,10.09
2018-10-01T05:20:47.720Z,10.16
2018-10-01T05:21:47.629Z,10.08
2018-10-01T05:22:47.921Z,10.18
2018-10-01T05:23:48.203Z,10.17
2018-10-01T05:24:47.482Z,10.16
2018-10-01T05:25:47.474Z,10.14
2018-10-01T05:27:48.681Z,10.12
2018-10-01T05:28:47.410Z,10.21
2018-10-01T05:29:47.927Z,10.09
2018-10-01T05:30:47.366Z,10.17
2018-10-01T05:31:47.454Z,10.23
2018-10-01T05:32:47.493Z,10.12
2018-10-01T05:33:47.305Z,10.20
2018-10-01T05:34:47.332Z,10.14
2018-10-01T05:36:47.624Z,10.16
2018-10-01T05:38:47.225Z,10.17
2018-10-01T05:39:47.190Z,10.20
2018-10-01T05:40:47.190Z,10.28
2018-10-01T05:41:47.160Z,10.20
2018-10-01T05:42:47.544Z,10.18
2018-10-01T05:44:47.102Z,10.21
2018-10-01T05:45:47.143Z,10.27
2018-10-01T05:46:47.112Z,10.24
2018-10-01T05:47:47.042Z,10.23
2018-10-01T05:48:47.055Z,10.20
2018-10-01T05:51:47.315Z,10.26
2018-10-01T05:52:46.953Z,10.21
2018-10-01T05:53:46.979Z,10.21
2018-10-01T05:54:46.965Z,10.21
2018-10-01T05:55:46.893Z,10.26
2018-10-01T05:56:47.021Z,10.35
2018-10-01T05:57:46.903Z,10.35
2018-10-01T05:58:48.400Z,10.43
2018-10-01T06:00:46.980Z,10.35
2018-10-01T06:01:46.941Z,10.34
2018-10-01T06:02:47.935Z,10.45
2018-10-01T06:03:48.514Z,10.45
2018-10-01T06:04:47.997Z,10.42
2018-10-01T06:05:48.718Z,10.48
2018-10-01T06:06:46.692Z,10.46
2018-10-01T06:07:46.755Z,10.48
2018-10-01T06:08:46.743Z,10.52
2018-10-01T06:09:46.635Z,10.60
2018-10-01T06:10:46.651Z,10.58
2018-10-01T06:11:46.596Z,10.58
2018-10-01T06:12:46.996Z,10.57
2018-10-01T06:13:46.597Z,10.64
2018-10-01T06:14:46.583Z,10.68
2018-10-01T06:15:46.639Z,10.54
2018-10-01T06:16:46.805Z,10.68
2018-10-01T06:17:46.493Z,10.73
2018-10-01T06:18:46.455Z,10.65
2018-10-01T06:19:46.734Z,10.72
2018-10-01T06:20:46.419Z,10.70
2018-10-01T06:21:46.451Z,10.78
2018-10-01T06:22:46.443Z,10.82
2018-10-01T06:23:46.370Z,10.73
2018-10-01T06:24:46.353Z,10.76
2018-10-01T06:25:46.331Z,10.79
2018-10-01T06:26:46.607Z,10.82
2018-10-01T06:27:46.588Z,10.75
2018-10-01T06:28:46.340Z,10.86
2018-10-01T06:29:46.251Z,10.80
2018-10-01T06:30:46.248Z,10.83
2018-10-01T06:31:46.213Z,10.93
2018-10-01T06:32:46.498Z,10.90
2018-10-01T06:33:46.234Z,10.82
2018-10-01T06:34:46.178Z,10.91
2018-10-01T06:35:46.141Z,11.00
2018-10-01T06:36:46.147Z,10.91
2018-10-01T06:37:46.181Z,10.97
2018-10-01T06:38:46.407Z,10.95
2018-10-01T06:39:46.312Z,11.00
2018-10-01T06:40:46.255Z,11.00
2018-10-01T06:41:46.083Z,11.09
2018-10-01T06:42:46.008Z,11.08
2018-10-01T06:43:45.991Z,11.09
2018-10-01T06:44:46.370Z,11.11
2018-10-01T06:45:46.335Z,11.12
2018-10-01T06:46:45.960Z,11.15
2018-10-01T06:47:45.969Z,11.13
2018-10-01T06:48:46.228Z,11.15
2018-10-01T06:49:45.880Z,11.09
2018-10-01T06:51:46.142Z,11.05
2018-10-01T06:52:45.874Z,11.16
2018-10-01T06:53:45.806Z,11.16
2018-10-01T06:54:45.837Z,11.13
2018-10-01T06:55:45.957Z,11.15
2018-10-01T06:56:45.801Z,11.28
2018-10-01T06:57:46.032Z,11.19
2018-10-01T06:58:45.734Z,11.27
2018-10-01T06:59:45.698Z,11.16
2018-10-01T07:00:45.732Z,11.20
2018-10-01T07:01:45.737Z,11.28
2018-10-01T07:02:45.697Z,11.33
2018-10-01T07:03:45.926Z,11.38
2018-10-01T07:04:45.647Z,11.34
2018-10-01T07:06:45.643Z,11.38
2018-10-01T07:07:45.657Z,11.40
2018-10-01T07:08:45.538Z,11.43
2018-10-01T07:09:45.827Z,11.45
2018-10-01T07:10:45.562Z,11.49
2018-10-01T07:11:46.135Z,11.48
2018-10-01T07:12:45.677Z,11.45
2018-10-01T07:13:45.514Z,11.45
2018-10-01T07:14:46.831Z,11.45
2018-10-01T07:15:45.702Z,11.46
2018-10-01T07:16:46.028Z,11.48
2018-10-01T07:17:45.536Z,11.46
2018-10-01T07:18:45.472Z,11.41
2018-10-01T07:19:45.633Z,11.48
2018-10-01T07:21:45.476Z,11.45
2018-10-01T07:22:45.435Z,11.51
2018-10-01T07:23:45.574Z,11.54
2018-10-01T07:24:45.279Z,11.54
2018-10-01T07:25:45.278Z,11.55
2018-10-01T07:26:45.216Z,11.54
2018-10-01T07:27:45.205Z,11.59
2018-10-01T07:29:45.964Z,11.73
2018-10-01T07:30:45.490Z,11.59
2018-10-01T07:31:45.120Z,11.69
2018-10-01T07:32:45.119Z,11.64
2018-10-01T07:33:45.091Z,11.71
2018-10-01T07:34:45.330Z,11.71
2018-10-01T07:35:45.044Z,11.62
2018-10-01T07:36:45.414Z,11.61
2018-10-01T07:37:45.012Z,11.70
2018-10-01T07:38:45.297Z,11.73
2018-10-01T07:39:45.381Z,11.73
2018-10-01T07:40:45.093Z,11.71
2018-10-01T07:41:44.943Z,11.62
2018-10-01T07:42:44.925Z,11.80
2018-10-01T07:43:45.270Z,11.64
2018-10-01T07:45:44.931Z,11.71
2018-10-01T07:46:44.969Z,11.76
2018-10-01T07:47:44.891Z,11.74
2018-10-01T07:48:44.826Z,11.69
2018-10-01T07:50:45.212Z,11.74
2018-10-01T07:51:44.855Z,11.76
2018-10-01T07:52:44.829Z,11.80
2018-10-01T07:53:44.849Z,11.87
2018-10-01T07:55:44.716Z,11.88
2018-10-01T07:56:44.738Z,11.91
2018-10-01T07:57:45.084Z,11.85
2018-10-01T07:58:44.706Z,11.99
2018-10-01T07:59:44.766Z,11.96
2018-10-01T08:01:44.995Z,12.08
2018-10-01T08:02:45.096Z,12.14
2018-10-01T08:03:45.059Z,12.13
2018-10-01T08:04:44.640Z,12.14
2018-10-01T08:05:44.595Z,12.21
2018-10-01T08:06:45.801Z,12.15
2018-10-01T08:07:44.628Z,12.10
2018-10-01T08:08:44.573Z,12.08
2018-10-01T08:09:44.864Z,12.07
2018-10-01T08:10:44.501Z,12.13
2018-10-01T08:11:44.538Z,12.07
2018-10-01T08:12:44.504Z,12.08
2018-10-01T08:13:44.489Z,12.00
2018-10-01T08:14:44.369Z,12.07
2018-10-01T08:15:44.730Z,12.00
2018-10-01T08:18:44.996Z,11.97
2018-10-01T08:19:44.274Z,12.00
2018-10-01T08:20:44.263Z,11.99
2018-10-01T08:21:44.845Z,12.04
2018-10-01T08:22:44.274Z,12.14
2018-10-01T08:24:44.230Z,12.11
2018-10-01T08:25:44.170Z,12.18
2018-10-01T08:26:44.206Z,12.21
2018-10-01T08:27:44.493Z,12.21
2018-10-01T08:28:44.220Z,12.23
2018-10-01T08:29:44.210Z,12.26
2018-10-01T08:30:44.090Z,12.17
2018-10-01T08:31:44.139Z,12.22
2018-10-01T08:32:44.061Z,12.25
2018-10-01T08:34:44.629Z,12.30
2018-10-01T08:37:44.643Z,12.30
2018-10-01T08:38:44.027Z,12.29
2018-10-01T08:39:43.934Z,12.22
2018-10-01T08:40:43.918Z,12.22
2018-10-01T08:41:44.199Z,12.15
2018-10-01T08:42:43.900Z,12.29
2018-10-01T08:43:43.893Z,12.29
2018-10-01T08:44:43.898Z,12.35
2018-10-01T08:45:43.834Z,12.32
2018-10-01T08:46:43.815Z,12.40
2018-10-01T08:47:43.889Z,12.46
2018-10-01T08:48:44.090Z,12.30
2018-10-01T08:49:44.548Z,12.44
2018-10-01T08:50:43.859Z,12.41
2018-10-01T08:51:43.756Z,12.50
2018-10-01T08:52:43.719Z,12.55
2018-10-01T08:53:43.691Z,12.58
2018-10-01T08:54:43.677Z,12.63
2018-10-01T08:55:43.961Z,12.63
2018-10-01T08:56:43.648Z,12.71
2018-10-01T08:57:43.625Z,12.83
2018-10-01T08:59:43.605Z,12.88
2018-10-01T09:00:43.629Z,12.91
2018-10-01T09:01:43.565Z,12.90
2018-10-01T09:02:43.634Z,12.83
2018-10-01T09:03:43.531Z,12.83
2018-10-01T09:04:43.522Z,12.83
2018-10-01T09:05:43.524Z,12.81
2018-10-01T09:06:43.570Z,12.96
2018-10-01T09:07:43.472Z,12.86
2018-10-01T09:08:43.751Z,13.01
2018-10-01T09:10:43.499Z,13.02
2018-10-01T09:12:43.447Z,13.01
2018-10-01T09:13:43.375Z,13.08
2018-10-01T09:14:43.484Z,13.11
2018-10-01T09:15:43.693Z,13.17
2018-10-01T09:16:43.623Z,13.36
2018-10-01T09:17:43.305Z,13.39
2018-10-01T09:18:43.413Z,13.46
2018-10-01T09:19:43.385Z,13.61
2018-10-01T09:20:43.313Z,13.63
2018-10-01T09:21:43.538Z,13.78
2018-10-01T09:22:44.775Z,13.88
2018-10-01T09:24:43.244Z,13.88
2018-10-01T09:25:43.175Z,13.97
2018-10-01T09:26:43.166Z,14.03
2018-10-01T09:27:43.142Z,14.04
2018-10-01T09:28:43.126Z,14.18
2018-10-01T09:29:43.757Z,14.33
2018-10-01T09:31:43.247Z,14.27
2018-10-01T09:32:43.074Z,14.33
2018-10-01T09:33:43.470Z,14.34
2018-10-01T09:34:43.052Z,14.34
2018-10-01T09:35:43.476Z,14.21
2018-10-01T09:36:43.009Z,14.01
2018-10-01T09:37:43.012Z,13.88
2018-10-01T09:39:43.009Z,13.71
2018-10-01T09:40:42.946Z,13.73
2018-10-01T09:41:43.285Z,13.51
2018-10-01T09:42:42.914Z,13.55
2018-10-01T09:43:42.899Z,13.58
2018-10-01T09:44:42.886Z,13.55
2018-10-01T09:45:42.919Z,13.49
2018-10-01T09:46:42.862Z,13.51
2018-10-01T09:49:43.116Z,13.21
2018-10-01T09:50:42.797Z,13.32
2018-10-01T09:51:42.819Z,13.24
2018-10-01T09:52:42.762Z,13.23
2018-10-01T09:53:42.881Z,13.27
2018-10-01T09:54:43.037Z,13.39
2018-10-01T09:55:42.762Z,13.47
2018-10-01T09:56:42.808Z,13.86
2018-10-01T09:57:42.788Z,14.04
2018-10-01T09:58:42.763Z,14.21
2018-10-01T09:59:42.719Z,14.38
2018-10-01T10:00:42.688Z,14.52
2018-10-01T10:01:43.026Z,14.56
2018-10-01T10:02:42.809Z,14.78
2018-10-01T10:03:42.605Z,15.01
2018-10-01T10:04:42.647Z,15.32
2018-10-01T10:06:42.621Z,15.62
2018-10-01T10:07:42.887Z,15.76
2018-10-01T10:08:42.639Z,15.93
2018-10-01T10:10:42.547Z,16.18
2018-10-01T10:12:42.534Z,16.79
2018-10-01T10:13:42.456Z,16.43
2018-10-01T10:14:42.797Z,16.51
2018-10-01T10:15:42.465Z,16.49
2018-10-01T10:16:42.609Z,16.43
2018-10-01T10:17:42.455Z,16.26
2018-10-01T10:18:42.451Z,16.40
2018-10-01T10:19:42.765Z,15.90
2018-10-01T10:21:42.666Z,16.05
2018-10-01T10:22:42.353Z,16.17
2018-10-01T10:23:42.390Z,16.21
2018-10-01T10:24:42.379Z,16.29
2018-10-01T10:26:42.317Z,16.76
2018-10-01T10:27:42.333Z,16.83
2018-10-01T10:28:42.583Z,17.24
2018-10-01T10:29:42.269Z,17.09
2018-10-01T10:30:42.317Z,16.43
2018-10-01T10:31:42.354Z,16.05
2018-10-01T10:32:42.261Z,15.73
2018-10-01T10:33:42.286Z,15.60
2018-10-01T10:34:42.209Z,15.27
2018-10-01T10:35:43.536Z,15.23
2018-10-01T10:36:42.197Z,14.99
2018-10-01T10:37:42.182Z,14.82
2018-10-01T10:38:42.177Z,14.79
2018-10-01T10:39:42.307Z,14.55
2018-10-01T10:40:42.685Z,14.52
2018-10-01T10:41:42.226Z,14.38
2018-10-01T10:42:42.425Z,14.45
2018-10-01T10:43:42.107Z,14.33
2018-10-01T10:44:42.162Z,14.27
2018-10-01T10:45:42.382Z,14.16
2018-10-01T10:46:42.070Z,14.15
2018-10-01T10:47:42.440Z,14.16
2018-10-01T10:48:42.048Z,14.18
2018-10-01T10:49:42.795Z,14.15
2018-10-01T10:50:42.160Z,14.12
2018-10-01T10:51:42.006Z,14.05
2018-10-01T10:52:41.998Z,14.11
2018-10-01T10:53:42.466Z,14.08
2018-10-01T10:54:41.964Z,14.13
2018-10-01T10:55:42.387Z,14.30
2018-10-01T10:56:42.235Z,14.21
2018-10-01T10:57:41.948Z,14.31
2018-10-01T10:58:41.909Z,14.78
2018-10-01T10:59:42.284Z,14.59
2018-10-01T11:00:41.928Z,14.56
2018-10-01T11:01:41.906Z,14.48
2018-10-01T11:02:42.205Z,14.33
2018-10-01T11:03:41.848Z,14.21
2018-10-01T11:04:41.901Z,14.16
2018-10-01T11:05:43.921Z,14.08
2018-10-01T11:06:43.106Z,14.09
2018-10-01T11:07:41.936Z,14.12
2018-10-01T11:08:42.308Z,14.12
2018-10-01T11:09:41.778Z,14.46
2018-10-01T11:11:42.116Z,15.72
2018-10-01T11:12:41.762Z,16.03
2018-10-01T11:13:42.013Z,16.46
2018-10-01T11:14:41.855Z,16.82
2018-10-01T11:15:41.949Z,17.06
2018-10-01T11:16:41.805Z,17.13
2018-10-01T11:17:41.769Z,17.25
2018-10-01T11:18:41.888Z,17.25
2018-10-01T11:19:41.750Z,16.76
2018-10-01T11:20:42.055Z,16.98
2018-10-01T11:21:42.003Z,17.22
2018-10-01T11:22:41.692Z,17.09
2018-10-01T11:23:41.620Z,16.82
2018-10-01T11:24:41.620Z,16.21
2018-10-01T11:25:41.547Z,15.83
2018-10-01T11:26:41.888Z,15.43
2018-10-01T11:27:41.949Z,15.25
2018-10-01T11:28:42.199Z,14.96
2018-10-01T11:29:41.493Z,14.83
2018-10-01T11:30:41.508Z,14.74
2018-10-01T11:31:41.769Z,14.74
2018-10-01T11:32:41.814Z,14.61
2018-10-01T11:33:41.579Z,14.56
2018-10-01T11:34:41.564Z,14.53
2018-10-01T11:35:41.453Z,14.56
2018-10-01T11:36:41.412Z,14.44
2018-10-01T11:37:41.451Z,14.30
2018-10-01T11:38:41.696Z,14.13
2018-10-01T11:39:41.479Z,14.26
2018-10-01T11:40:41.371Z,14.71
2018-10-01T11:41:41.914Z,15.26
2018-10-01T11:43:41.319Z,16.09
2018-10-01T11:44:41.297Z,16.64
2018-10-01T11:45:41.593Z,17.06
2018-10-01T11:47:41.277Z,17.43
2018-10-01T11:48:41.248Z,17.65
2018-10-01T11:49:41.287Z,17.71
2018-10-01T11:50:41.382Z,18.03
2018-10-01T11:51:41.368Z,17.07
2018-10-01T11:52:41.550Z,16.70
2018-10-01T11:53:41.192Z,16.28
2018-10-01T11:54:41.179Z,16.02
2018-10-01T11:55:41.302Z,15.80
2018-10-01T11:56:41.206Z,15.58
2018-10-01T11:57:41.446Z,15.41
2018-10-01T11:58:41.131Z,15.29
2018-10-01T11:59:41.424Z,15.05
2018-10-01T12:00:41.618Z,14.95
2018-10-01T12:01:41.148Z,14.90
2018-10-01T12:02:41.090Z,14.83
2018-10-01T12:03:41.289Z,14.85
2018-10-01T12:04:41.098Z,14.86
2018-10-01T12:05:41.087Z,14.78
2018-10-01T12:06:41.985Z,14.63
2018-10-01T12:07:41.281Z,14.38
2018-10-01T12:08:41.312Z,14.13
2018-10-01T12:09:41.106Z,13.76
2018-10-01T12:10:40.984Z,13.38
2018-10-01T12:11:40.978Z,12.87
2018-10-01T12:12:41.305Z,12.46
2018-10-01T12:13:40.943Z,12.22
2018-10-01T12:14:40.928Z,11.96
2018-10-01T12:15:41.071Z,11.64
2018-10-01T12:16:40.953Z,11.34
2018-10-01T12:17:40.940Z,11.18
2018-10-01T12:18:40.988Z,10.98
2018-10-01T12:19:41.207Z,10.85
2018-10-01T12:22:40.812Z,10.64
2018-10-01T12:23:40.808Z,10.65
2018-10-01T12:27:41.488Z,10.75
2018-10-01T12:28:40.708Z,10.73
2018-10-01T12:29:40.927Z,10.75
2018-10-01T12:32:41.843Z,10.83
2018-10-01T12:33:41.210Z,10.93
2018-10-01T12:34:40.632Z,10.82
2018-10-01T12:35:40.670Z,10.85
2018-10-01T12:36:40.573Z,10.90
2018-10-01T12:37:40.606Z,10.95
2018-10-01T12:39:41.522Z,10.93
2018-10-01T12:40:40.505Z,11.03
2018-10-01T12:41:40.663Z,10.95
2018-10-01T12:42:40.530Z,11.09
2018-10-01T12:43:40.468Z,11.04
2018-10-01T12:44:40.902Z,11.03
2018-10-01T12:46:40.446Z,11.09
2018-10-01T12:47:40.391Z,11.11
2018-10-01T12:48:40.970Z,11.33
2018-10-01T12:50:40.326Z,11.56
2018-10-01T12:52:41.878Z,11.71
2018-10-01T12:53:40.974Z,11.70
2018-10-01T12:54:40.486Z,11.76
2018-10-01T12:56:40.228Z,11.58
2018-10-01T12:57:41.272Z,11.61
2018-10-01T12:58:40.492Z,11.58
2018-10-01T13:00:40.346Z,11.40
2018-10-01T13:01:41.006Z,11.36
2018-10-01T13:02:40.119Z,11.43
2018-10-01T13:03:40.108Z,11.34
2018-10-01T13:04:40.489Z,11.34
2018-10-01T13:05:40.230Z,11.36
2018-10-01T13:07:40.089Z,11.25
2018-10-01T13:08:40.080Z,11.23
2018-10-01T13:09:40.246Z,11.22
2018-10-01T13:11:40.499Z,11.13
2018-10-01T13:12:40.411Z,11.16
2018-10-01T13:13:40.339Z,11.08
2018-10-01T13:14:39.915Z,11.01
2018-10-01T13:15:39.938Z,10.98
2018-10-01T13:16:39.873Z,11.01
2018-10-01T13:17:40.114Z,11.03
2018-10-01T13:18:40.338Z,11.11
2018-10-01T13:19:39.879Z,11.04
2018-10-01T13:20:39.797Z,11.08
2018-10-01T13:21:39.789Z,11.13
2018-10-01T13:22:39.802Z,11.15
2018-10-01T13:23:39.848Z,11.16
2018-10-01T13:24:41.526Z,11.15
2018-10-01T13:25:40.076Z,11.25
2018-10-01T13:26:39.708Z,11.20
2018-10-01T13:27:39.681Z,11.37
2018-10-01T13:29:39.796Z,11.76
2018-10-01T13:30:40.005Z,11.89
2018-10-01T13:31:39.657Z,12.11
2018-10-01T13:32:39.889Z,12.41
2018-10-01T13:34:39.550Z,12.29
2018-10-01T13:35:39.540Z,12.38
2018-10-01T13:36:39.972Z,12.29
2018-10-01T13:37:39.592Z,12.18
2018-10-01T13:38:39.479Z,12.00
2018-10-01T13:40:40.221Z,11.91
2018-10-01T13:41:39.454Z,11.76
2018-10-01T13:42:39.508Z,11.89
2018-10-01T13:43:39.393Z,11.85
2018-10-01T13:44:39.381Z,11.84
2018-10-01T13:45:39.358Z,11.84
2018-10-01T13:46:39.592Z,11.87
2018-10-01T13:47:40.694Z,11.88
2018-10-01T13:48:39.414Z,11.93
2018-10-01T13:50:39.272Z,12.00
2018-10-01T13:51:39.270Z,11.96
2018-10-01T13:52:39.323Z,11.84
2018-10-01T13:53:39.237Z,12.03
2018-10-01T13:55:39.962Z,12.00
2018-10-01T13:56:39.178Z,12.11
2018-10-01T13:58:39.415Z,12.21
2018-10-01T13:59:39.187Z,12.22
2018-10-01T14:01:39.614Z,12.46
2018-10-01T14:02:39.130Z,12.69
2018-10-01T14:04:39.258Z,13.24
2018-10-01T14:05:39.503Z,13.45
2018-10-01T14:06:39.071Z,13.46
2018-10-01T14:07:39.610Z,13.42
2018-10-01T14:08:39.034Z,14.03
2018-10-01T14:09:39.127Z,14.56
2018-10-01T14:10:39.611Z,14.73
2018-10-01T14:11:38.987Z,14.93
2018-10-01T14:12:38.967Z,15.08
2018-10-01T14:13:39.602Z,15.07
2018-10-01T14:14:39.025Z,15.30
2018-10-01T14:15:39.246Z,15.07
2018-10-01T14:16:39.006Z,15.33
2018-10-01T14:18:39.547Z,15.72
2018-10-01T14:19:38.890Z,15.78
2018-10-01T14:20:38.851Z,15.73
2018-10-01T14:21:38.959Z,15.63
2018-10-01T14:22:38.826Z,15.15
2018-10-01T14:23:40.854Z,14.45
2018-10-01T14:24:39.253Z,14.28